EDSB/FKB METAR and TAF weather

Enter ICAO airport designator
Station Type Date Time Source
EDSB METAR 2020/12/05 05:20 UTC NOAA

EDSB 050520Z 20006KT 9999 SCT040 03/02 Q0997


Station Type Date Time Source
EDSB Decoded METAR 2020/12/05 05:20 UTC NOAA

Karlsruhe, Baden Wurttemberg, Germany (EDSB) 48-46-43N 008-04-47E
Dec 05, 2020 - 12:20 AM EST / 2020.12.05 0520 UTC
Wind: from the SSW (200 degrees) at 7 MPH (6 KT):0
Visibility: greater than 7 mile(s):0
Sky conditions: partly cloudy
Temperature: 37 F (3 C)
Dew Point: 35 F (2 C)
Relative Humidity: 93%
Pressure (altimeter): 29.44 in. Hg (0997 hPa)
ob: EDSB 050520Z 20006KT 9999 SCT040 03/02 Q0997
cycle: 5

Station Type Date Time Source
EDSB TAF 2020/12/05 06:27 UTC NOAA

TAF EDSB 050500Z 0506/0606 20008KT 9999 BKN030
BECMG 0512/0514 02004KT PROB40
TEMPO 0602/0606 BKN012

Example: see airport list